sensor_id;sensor_type;location;lat;lon;timestamp;pressure;altitude;pressure_sealevel;temperature;humidity
74218;BME280;62579;47.288;18.646;2023-03-13T00:00:13;100125.13;;;5.55;60.09
74218;BME280;62579;47.288;18.646;2023-03-13T00:02:39;100125.59;;;5.44;62.24
74218;BME280;62579;47.288;18.646;2023-03-13T00:05:04;100130.66;;;5.52;61.87
74218;BME280;62579;47.288;18.646;2023-03-13T00:07:30;100136.22;;;5.57;62.58
74218;BME280;62579;47.288;18.646;2023-03-13T00:09:55;100128.72;;;5.52;63.53
74218;BME280;62579;47.288;18.646;2023-03-13T00:12:20;100120.06;;;5.48;63.74
74218;BME280;62579;47.288;18.646;2023-03-13T00:14:46;100123.31;;;5.52;64.86
74218;BME280;62579;47.288;18.646;2023-03-13T00:17:11;100119.59;;;5.50;63.71
74218;BME280;62579;47.288;18.646;2023-03-13T00:19:36;100118.69;;;5.43;62.23
74218;BME280;62579;47.288;18.646;2023-03-13T00:22:01;100122.28;;;5.50;61.45
74218;BME280;62579;47.288;18.646;2023-03-13T00:24:26;100120.06;;;5.48;62.27
74218;BME280;62579;47.288;18.646;2023-03-13T00:26:52;100126.94;;;5.49;61.69
74218;BME280;62579;47.288;18.646;2023-03-13T00:29:18;100120.81;;;5.49;61.93
74218;BME280;62579;47.288;18.646;2023-03-13T00:31:44;100122.88;;;5.54;61.70
74218;BME280;62579;47.288;18.646;2023-03-13T00:34:09;100118.22;;;5.54;62.08
74218;BME280;62579;47.288;18.646;2023-03-13T00:36:34;100119.59;;;5.50;61.59
74218;BME280;62579;47.288;18.646;2023-03-13T00:39:00;100119.44;;;5.44;62.81
74218;BME280;62579;47.288;18.646;2023-03-13T00:41:26;100108.84;;;5.40;61.99
74218;BME280;62579;47.288;18.646;2023-03-13T00:43:52;100103.31;;;5.35;61.82
74218;BME280;62579;47.288;18.646;2023-03-13T00:46:19;100105.81;;;5.38;61.36
74218;BME280;62579;47.288;18.646;2023-03-13T00:48:44;100097.28;;;5.40;62.18
74218;BME280;62579;47.288;18.646;2023-03-13T00:51:09;100096.06;;;5.41;62.43
74218;BME280;62579;47.288;18.646;2023-03-13T00:53:35;100098.94;;;5.28;63.55
74218;BME280;62579;47.288;18.646;2023-03-13T00:58:27;100092.66;;;5.31;62.98
74218;BME280;62579;47.288;18.646;2023-03-13T01:00:52;100096.88;;;5.32;62.85
74218;BME280;62579;47.288;18.646;2023-03-13T01:03:18;100101.19;;;5.39;62.59
74218;BME280;62579;47.288;18.646;2023-03-13T01:05:43;100093.06;;;5.39;62.94
74218;BME280;62579;47.288;18.646;2023-03-13T01:08:09;100089.81;;;5.17;63.04
74218;BME280;62579;47.288;18.646;2023-03-13T01:10:34;100090.59;;;5.17;63.26
74218;BME280;62579;47.288;18.646;2023-03-13T01:12:59;100087.59;;;5.24;63.02
74218;BME280;62579;47.288;18.646;2023-03-13T01:15:24;100081.16;;;5.13;63.59
74218;BME280;62579;47.288;18.646;2023-03-13T01:17:50;100074.09;;;5.24;63.01
74218;BME280;62579;47.288;18.646;2023-03-13T01:20:15;100075.28;;;5.32;62.53
74218;BME280;62579;47.288;18.646;2023-03-13T01:22:40;100067.25;;;5.47;61.79
74218;BME280;62579;47.288;18.646;2023-03-13T01:25:06;100061.03;;;5.32;62.40
74218;BME280;62579;47.288;18.646;2023-03-13T01:27:31;100058.31;;;5.32;62.94
74218;BME280;62579;47.288;18.646;2023-03-13T01:29:56;100052.47;;;5.33;62.81
74218;BME280;62579;47.288;18.646;2023-03-13T01:32:22;100047.53;;;5.32;62.73
74218;BME280;62579;47.288;18.646;2023-03-13T01:34:47;100049.47;;;5.31;62.26
74218;BME280;62579;47.288;18.646;2023-03-13T01:37:12;100053.78;;;5.38;61.79
74218;BME280;62579;47.288;18.646;2023-03-13T01:39:37;100052.03;;;5.35;62.13
74218;BME280;62579;47.288;18.646;2023-03-13T01:42:03;100055.62;;;5.32;62.37
74218;BME280;62579;47.288;18.646;2023-03-13T01:44:29;100052.03;;;5.35;62.78
74218;BME280;62579;47.288;18.646;2023-03-13T01:46:54;100051.22;;;5.43;62.16
74218;BME280;62579;47.288;18.646;2023-03-13T01:51:46;100045.41;;;5.36;63.40
74218;BME280;62579;47.288;18.646;2023-03-13T01:57:04;100043.34;;;5.31;65.80
74218;BME280;62579;47.288;18.646;2023-03-13T01:59:37;100047.41;;;5.26;68.52
74218;BME280;62579;47.288;18.646;2023-03-13T02:02:04;100036.06;;;5.04;70.32
74218;BME280;62579;47.288;18.646;2023-03-13T02:04:32;100039.06;;;5.06;70.37
74218;BME280;62579;47.288;18.646;2023-03-13T02:07:01;100023.91;;;5.09;70.67
74218;BME280;62579;47.288;18.646;2023-03-13T02:09:27;100024.09;;;4.96;70.76
74218;BME280;62579;47.288;18.646;2023-03-13T02:14:29;100025.75;;;4.94;70.10
74218;BME280;62579;47.288;18.646;2023-03-13T02:16:57;100027.84;;;4.90;70.64
74218;BME280;62579;47.288;18.646;2023-03-13T02:19:26;100023.66;;;4.89;70.67
74218;BME280;62579;47.288;18.646;2023-03-13T02:21:59;100024.84;;;4.97;70.28
74218;BME280;62579;47.288;18.646;2023-03-13T02:24:30;100016.47;;;4.85;70.89
74218;BME280;62579;47.288;18.646;2023-03-13T02:26:58;100007.19;;;4.87;70.53
74218;BME280;62579;47.288;18.646;2023-03-13T02:29:23;100007.19;;;4.87;70.76
74218;BME280;62579;47.288;18.646;2023-03-13T02:31:49;100010.63;;;4.87;70.21
74218;BME280;62579;47.288;18.646;2023-03-13T02:34:16;100011.38;;;4.97;69.57
74218;BME280;62579;47.288;18.646;2023-03-13T02:36:42;100002.22;;;4.94;69.18
74218;BME280;62579;47.288;18.646;2023-03-13T02:39:08;100008.25;;;4.89;68.70
74218;BME280;62579;47.288;18.646;2023-03-13T02:41:35;100011.66;;;4.90;68.88
74218;BME280;62579;47.288;18.646;2023-03-13T02:44:00;100027.53;;;4.97;68.30
74218;BME280;62579;47.288;18.646;2023-03-13T02:46:26;100030.84;;;4.92;68.56
74218;BME280;62579;47.288;18.646;2023-03-13T02:48:52;100031.28;;;4.90;68.25
74218;BME280;62579;47.288;18.646;2023-03-13T02:53:43;100034.88;;;4.87;67.10
74218;BME280;62579;47.288;18.646;2023-03-13T02:56:09;100035.03;;;4.93;67.44
74218;BME280;62579;47.288;18.646;2023-03-13T02:58:42;100026.22;;;4.92;67.81
74218;BME280;62579;47.288;18.646;2023-03-13T03:01:08;100021.16;;;4.67;68.44
74218;BME280;62579;47.288;18.646;2023-03-13T03:03:34;100020.41;;;4.66;68.83
74218;BME280;62579;47.288;18.646;2023-03-13T03:06:01;100018.12;;;4.74;68.45
74218;BME280;62579;47.288;18.646;2023-03-13T03:08:26;100033.72;;;4.70;68.35
74218;BME280;62579;47.288;18.646;2023-03-13T03:10:51;100038.50;;;4.66;68.73
74218;BME280;62579;47.288;18.646;2023-03-13T03:13:16;100038.53;;;4.57;69.37
74218;BME280;62579;47.288;18.646;2023-03-13T03:15:42;100035.66;;;4.60;69.61
74218;BME280;62579;47.288;18.646;2023-03-13T03:18:07;100033.59;;;4.64;69.25
74218;BME280;62579;47.288;18.646;2023-03-13T03:20:32;100029.09;;;4.61;69.16
74218;BME280;62579;47.288;18.646;2023-03-13T03:22:57;100032.38;;;4.65;68.30
74218;BME280;62579;47.288;18.646;2023-03-13T03:25:22;100032.50;;;4.71;68.51
74218;BME280;62579;47.288;18.646;2023-03-13T03:27:48;100029.09;;;4.52;69.25
74218;BME280;62579;47.288;18.646;2023-03-13T03:30:13;100028.78;;;4.50;69.15
74218;BME280;62579;47.288;18.646;2023-03-13T03:32:39;100025.66;;;4.43;69.62
74218;BME280;62579;47.288;18.646;2023-03-13T03:35:04;100027.72;;;4.66;68.01
74218;BME280;62579;47.288;18.646;2023-03-13T03:37:29;100031.03;;;4.61;68.38
74218;BME280;62579;47.288;18.646;2023-03-13T03:39:54;100029.09;;;4.61;67.91
74218;BME280;62579;47.288;18.646;2023-03-13T03:42:20;100037.31;;;4.58;68.00
74218;BME280;62579;47.288;18.646;2023-03-13T03:44:45;100035.53;;;4.37;68.79
74218;BME280;62579;47.288;18.646;2023-03-13T03:47:10;100039.12;;;4.24;69.34
74218;BME280;62579;47.288;18.646;2023-03-13T03:49:35;100044.34;;;4.28;69.17
74218;BME280;62579;47.288;18.646;2023-03-13T03:52:01;100054.41;;;4.28;69.11
74218;BME280;62579;47.288;18.646;2023-03-13T03:54:26;100055.44;;;4.30;69.14
74218;BME280;62579;47.288;18.646;2023-03-13T03:56:51;100046.75;;;4.26;68.87
74218;BME280;62579;47.288;18.646;2023-03-13T03:59:16;100061.84;;;4.14;69.45
74218;BME280;62579;47.288;18.646;2023-03-13T04:01:42;100062.72;;;4.02;69.63
74218;BME280;62579;47.288;18.646;2023-03-13T04:04:08;100066.44;;;3.96;69.84
74218;BME280;62579;47.288;18.646;2023-03-13T04:06:33;100068.50;;;3.83;70.46
74218;BME280;62579;47.288;18.646;2023-03-13T04:08:59;100069.59;;;3.94;70.09
74218;BME280;62579;47.288;18.646;2023-03-13T04:11:24;100072.53;;;3.78;70.65
74218;BME280;62579;47.288;18.646;2023-03-13T04:13:49;100079.84;;;3.78;70.87
74218;BME280;62579;47.288;18.646;2023-03-13T04:16:14;100080.59;;;3.78;70.97
74218;BME280;62579;47.288;18.646;2023-03-13T04:18:39;100080.59;;;3.78;70.87
74218;BME280;62579;47.288;18.646;2023-03-13T04:21:05;100076.28;;;3.81;70.46
74218;BME280;62579;47.288;18.646;2023-03-13T04:23:30;100086.56;;;3.73;70.89
74218;BME280;62579;47.288;18.646;2023-03-13T04:25:55;100088.22;;;3.71;71.14
74218;BME280;62579;47.288;18.646;2023-03-13T04:28:20;100075.81;;;3.82;70.97
74218;BME280;62579;47.288;18.646;2023-03-13T04:30:46;100078.84;;;3.84;70.61
74218;BME280;62579;47.288;18.646;2023-03-13T04:33:11;100084.69;;;3.92;70.44
74218;BME280;62579;47.288;18.646;2023-03-13T04:35:36;100086.50;;;3.95;70.08
74218;BME280;62579;47.288;18.646;2023-03-13T04:38:01;100074.84;;;3.98;69.54
74218;BME280;62579;47.288;18.646;2023-03-13T04:40:27;100082.00;;;4.01;69.50
74218;BME280;62579;47.288;18.646;2023-03-13T04:42:52;100082.00;;;4.01;69.59
74218;BME280;62579;47.288;18.646;2023-03-13T04:45:17;100079.91;;;3.96;69.95
74218;BME280;62579;47.288;18.646;2023-03-13T04:47:42;100089.66;;;4.02;69.69
74218;BME280;62579;47.288;18.646;2023-03-13T04:50:08;100077.06;;;3.99;69.60
74218;BME280;62579;47.288;18.646;2023-03-13T04:52:33;100075.91;;;4.00;69.30
74218;BME280;62579;47.288;18.646;2023-03-13T04:54:59;100079.03;;;3.99;69.45
74218;BME280;62579;47.288;18.646;2023-03-13T04:57:24;100082.16;;;4.06;69.18
74218;BME280;62579;47.288;18.646;2023-03-13T04:59:49;100084.72;;;4.10;68.79
74218;BME280;62579;47.288;18.646;2023-03-13T05:02:14;100080.66;;;3.96;69.31
74218;BME280;62579;47.288;18.646;2023-03-13T05:04:39;100084.69;;;4.01;69.04
74218;BME280;62579;47.288;18.646;2023-03-13T05:07:05;100085.91;;;4.00;69.01
74218;BME280;62579;47.288;18.646;2023-03-13T05:09:30;100091.00;;;4.07;68.83
74218;BME280;62579;47.288;18.646;2023-03-13T05:11:55;100094.25;;;3.93;69.56
74218;BME280;62579;47.288;18.646;2023-03-13T05:14:20;100086.66;;;4.00;69.21
74218;BME280;62579;47.288;18.646;2023-03-13T05:16:46;100086.03;;;3.96;69.08
74218;BME280;62579;47.288;18.646;2023-03-13T05:19:11;100086.66;;;4.09;68.68
74218;BME280;62579;47.288;18.646;2023-03-13T05:21:36;100094.03;;;4.18;67.96
74218;BME280;62579;47.288;18.646;2023-03-13T05:24:02;100089.53;;;4.15;68.16
74218;BME280;62579;47.288;18.646;2023-03-13T05:26:27;100091.47;;;4.14;68.08
74218;BME280;62579;47.288;18.646;2023-03-13T05:28:52;100088.78;;;4.14;68.10
74218;BME280;62579;47.288;18.646;2023-03-13T05:31:17;100097.00;;;4.11;68.51
74218;BME280;62579;47.288;18.646;2023-03-13T05:33:42;100099.97;;;3.95;68.79
74218;BME280;62579;47.288;18.646;2023-03-13T05:36:08;100100.53;;;3.90;68.72
74218;BME280;62579;47.288;18.646;2023-03-13T05:38:33;100117.28;;;3.94;68.81
74218;BME280;62579;47.288;18.646;2023-03-13T05:40:58;100112.84;;;4.00;68.31
74218;BME280;62579;47.288;18.646;2023-03-13T05:43:23;100113.31;;;4.07;67.92
74218;BME280;62579;47.288;18.646;2023-03-13T05:45:49;100105.84;;;4.11;67.54
74218;BME280;62579;47.288;18.646;2023-03-13T05:48:14;100109.25;;;4.12;67.86
74218;BME280;62579;47.288;18.646;2023-03-13T05:50:39;100111.22;;;4.11;67.54
74218;BME280;62579;47.288;18.646;2023-03-13T05:53:04;100110.03;;;4.12;67.48
74218;BME280;62579;47.288;18.646;2023-03-13T05:55:29;100109.88;;;4.25;66.88
74218;BME280;62579;47.288;18.646;2023-03-13T05:57:55;100105.41;;;4.31;65.87
74218;BME280;62579;47.288;18.646;2023-03-13T06:00:20;100104.53;;;4.34;66.07
74218;BME280;62579;47.288;18.646;2023-03-13T06:02:45;100115.91;;;4.29;66.30
74218;BME280;62579;47.288;18.646;2023-03-13T06:05:11;100107.53;;;4.45;65.42
74218;BME280;62579;47.288;18.646;2023-03-13T06:07:36;100109.78;;;4.38;65.80
74218;BME280;62579;47.288;18.646;2023-03-13T06:10:02;100116.50;;;4.33;65.52
74218;BME280;62579;47.288;18.646;2023-03-13T06:12:27;100118.63;;;4.47;65.69
74218;BME280;62579;47.288;18.646;2023-03-13T06:14:53;100118.63;;;4.56;65.66
74218;BME280;62579;47.288;18.646;2023-03-13T06:17:18;100109.94;;;4.61;66.24
74218;BME280;62579;47.288;18.646;2023-03-13T06:19:44;100104.72;;;4.76;65.96
74218;BME280;62579;47.288;18.646;2023-03-13T06:22:10;100098.41;;;4.79;65.50
74218;BME280;62579;47.288;18.646;2023-03-13T06:24:35;100103.94;;;4.84;65.19
74218;BME280;62579;47.288;18.646;2023-03-13T06:27:00;100100.22;;;5.00;64.84
74218;BME280;62579;47.288;18.646;2023-03-13T06:29:25;100097.50;;;4.82;65.42
74218;BME280;62579;47.288;18.646;2023-03-13T06:31:51;100106.66;;;4.94;65.21
74218;BME280;62579;47.288;18.646;2023-03-13T06:34:16;100107.09;;;5.10;64.55
74218;BME280;62579;47.288;18.646;2023-03-13T06:36:42;100104.06;;;5.17;64.33
74218;BME280;62579;47.288;18.646;2023-03-13T06:39:07;100112.47;;;5.10;64.50
74218;BME280;62579;47.288;18.646;2023-03-13T06:41:32;100107.81;;;5.20;64.64
74218;BME280;62579;47.288;18.646;2023-03-13T06:43:58;100108.09;;;5.40;63.57
74218;BME280;62579;47.288;18.646;2023-03-13T06:46:23;100101.47;;;5.41;63.71
74218;BME280;62579;47.288;18.646;2023-03-13T06:48:49;100108.34;;;5.51;63.08
74218;BME280;62579;47.288;18.646;2023-03-13T06:51:15;100106.38;;;5.52;63.20
74218;BME280;62579;47.288;18.646;2023-03-13T06:53:41;100104.00;;;5.54;63.21
74218;BME280;62579;47.288;18.646;2023-03-13T06:56:06;100105.88;;;5.62;63.08
74218;BME280;62579;47.288;18.646;2023-03-13T06:58:31;100105.16;;;5.62;63.41
74218;BME280;62579;47.288;18.646;2023-03-13T07:00:57;100109.19;;;5.66;62.79
74218;BME280;62579;47.288;18.646;2023-03-13T07:03:22;100099.56;;;5.74;62.73
74218;BME280;62579;47.288;18.646;2023-03-13T07:05:48;100102.81;;;5.78;62.26
74218;BME280;62579;47.288;18.646;2023-03-13T07:08:18;100107.47;;;5.87;62.16
74218;BME280;62579;47.288;18.646;2023-03-13T07:10:44;100106.41;;;5.93;61.81
74218;BME280;62579;47.288;18.646;2023-03-13T07:13:12;100106.81;;;6.01;60.68
74218;BME280;62579;47.288;18.646;2023-03-13T07:15:37;100105.22;;;6.18;60.77
74218;BME280;62579;47.288;18.646;2023-03-13T07:18:02;100104.13;;;6.25;60.21
74218;BME280;62579;47.288;18.646;2023-03-13T07:20:28;100099.06;;;6.41;59.86
74218;BME280;62579;47.288;18.646;2023-03-13T07:22:53;100102.97;;;6.40;59.51
74218;BME280;62579;47.288;18.646;2023-03-13T07:25:18;100098.59;;;6.19;60.99
74218;BME280;62579;47.288;18.646;2023-03-13T07:27:43;100092.69;;;6.53;59.47
74218;BME280;62579;47.288;18.646;2023-03-13T07:30:09;100101.34;;;6.57;59.03
74218;BME280;62579;47.288;18.646;2023-03-13T07:32:34;100092.34;;;6.75;58.39
74218;BME280;62579;47.288;18.646;2023-03-13T07:34:59;100093.12;;;6.90;57.84
74218;BME280;62579;47.288;18.646;2023-03-13T07:37:27;100090.53;;;7.10;57.58
74218;BME280;62579;47.288;18.646;2023-03-13T07:39:52;100095.91;;;6.81;57.32
74218;BME280;62579;47.288;18.646;2023-03-13T07:42:17;100080.72;;;6.98;56.79
74218;BME280;62579;47.288;18.646;2023-03-13T07:44:42;100078.03;;;7.28;55.62
74218;BME280;62579;47.288;18.646;2023-03-13T07:47:08;100078.41;;;7.20;56.35
74218;BME280;62579;47.288;18.646;2023-03-13T07:49:33;100081.28;;;7.32;56.74
74218;BME280;62579;47.288;18.646;2023-03-13T07:52:03;100076.69;;;7.52;55.51
74218;BME280;62579;47.288;18.646;2023-03-13T07:54:28;100074.87;;;7.64;55.50
74218;BME280;62579;47.288;18.646;2023-03-13T07:56:53;100076.66;;;7.67;54.06
74218;BME280;62579;47.288;18.646;2023-03-13T07:59:19;100067.81;;;7.66;54.58
74218;BME280;62579;47.288;18.646;2023-03-13T08:01:44;100065.41;;;7.88;53.67
74218;BME280;62579;47.288;18.646;2023-03-13T08:04:12;100063.19;;;7.87;53.90
74218;BME280;62579;47.288;18.646;2023-03-13T08:06:38;100053.53;;;7.86;54.07
74218;BME280;62579;47.288;18.646;2023-03-13T08:09:05;100049.38;;;8.05;53.21
74218;BME280;62579;47.288;18.646;2023-03-13T08:11:30;100048.50;;;8.14;53.07
74218;BME280;62579;47.288;18.646;2023-03-13T08:13:56;100049.53;;;8.36;52.33
74218;BME280;62579;47.288;18.646;2023-03-13T08:16:23;100049.12;;;8.43;52.35
74218;BME280;62579;47.288;18.646;2023-03-13T08:18:49;100042.12;;;8.57;51.29
74218;BME280;62579;47.288;18.646;2023-03-13T08:21:19;100035.88;;;8.71;50.64
74218;BME280;62579;47.288;18.646;2023-03-13T08:23:45;100042.88;;;8.83;49.44
74218;BME280;62579;47.288;18.646;2023-03-13T08:26:11;100033.09;;;8.91;49.50
74218;BME280;62579;47.288;18.646;2023-03-13T08:28:37;100012.59;;;8.90;49.30
74218;BME280;62579;47.288;18.646;2023-03-13T08:31:09;100009.94;;;8.96;48.43
74218;BME280;62579;47.288;18.646;2023-03-13T08:33:35;100007.66;;;9.20;48.25
74218;BME280;62579;47.288;18.646;2023-03-13T08:36:10;99998.78;;;9.20;49.09
74218;BME280;62579;47.288;18.646;2023-03-13T08:38:36;99998.56;;;9.23;48.68
74218;BME280;62579;47.288;18.646;2023-03-13T08:41:02;100005.28;;;9.33;48.09
74218;BME280;62579;47.288;18.646;2023-03-13T08:43:27;99993.28;;;9.45;46.26
74218;BME280;62579;47.288;18.646;2023-03-13T08:45:55;99998.22;;;9.47;47.57
74218;BME280;62579;47.288;18.646;2023-03-13T08:48:21;100009.69;;;9.62;46.92
74218;BME280;62579;47.288;18.646;2023-03-13T08:50:46;99999.34;;;9.72;47.29
74218;BME280;62579;47.288;18.646;2023-03-13T08:53:11;99995.84;;;9.60;46.73
74218;BME280;62579;47.288;18.646;2023-03-13T08:55:36;99993.13;;;9.65;47.38
74218;BME280;62579;47.288;18.646;2023-03-13T08:58:01;99993.63;;;9.64;47.16
74218;BME280;62579;47.288;18.646;2023-03-13T09:00:27;99997.09;;;9.64;46.55
74218;BME280;62579;47.288;18.646;2023-03-13T09:02:52;99993.25;;;9.88;47.06
74218;BME280;62579;47.288;18.646;2023-03-13T09:05:17;99988.38;;;9.97;47.00
74218;BME280;62579;47.288;18.646;2023-03-13T09:07:42;99993.84;;;10.08;46.67
74218;BME280;62579;47.288;18.646;2023-03-13T09:10:08;99984.31;;;10.35;47.18
74218;BME280;62579;47.288;18.646;2023-03-13T09:12:33;99971.72;;;10.32;46.38
74218;BME280;62579;47.288;18.646;2023-03-13T09:14:58;99976.19;;;10.52;50.75
74218;BME280;62579;47.288;18.646;2023-03-13T09:17:24;99969.50;;;10.53;47.10
74218;BME280;62579;47.288;18.646;2023-03-13T09:19:50;99963.59;;;10.49;46.87
74218;BME280;62579;47.288;18.646;2023-03-13T09:22:15;99968.78;;;10.58;46.54
74218;BME280;62579;47.288;18.646;2023-03-13T09:24:41;99972.53;;;10.99;45.47
74218;BME280;62579;47.288;18.646;2023-03-13T09:27:07;99964.59;;;10.84;45.40
74218;BME280;62579;47.288;18.646;2023-03-13T09:29:32;99958.16;;;11.10;45.75
74218;BME280;62579;47.288;18.646;2023-03-13T09:31:57;99965.06;;;11.27;45.78
74218;BME280;62579;47.288;18.646;2023-03-13T09:34:22;99950.72;;;11.16;44.43
74218;BME280;62579;47.288;18.646;2023-03-13T09:36:49;99957.09;;;11.46;43.75
74218;BME280;62579;47.288;18.646;2023-03-13T09:39:14;99950.88;;;11.51;45.16
74218;BME280;62579;47.288;18.646;2023-03-13T09:41:49;99956.06;;;11.60;45.23
74218;BME280;62579;47.288;18.646;2023-03-13T09:46:48;99958.56;;;11.69;43.64
74218;BME280;62579;47.288;18.646;2023-03-13T09:51:50;99944.62;;;11.78;44.75
74218;BME280;62579;47.288;18.646;2023-03-13T09:57:06;99925.37;;;12.17;43.17
74218;BME280;62579;47.288;18.646;2023-03-13T09:59:36;99928.41;;;12.49;43.38
74218;BME280;62579;47.288;18.646;2023-03-13T10:02:54;99931.59;;;12.53;41.48
74218;BME280;62579;47.288;18.646;2023-03-13T10:07:30;99917.41;;;12.90;41.56
74218;BME280;62579;47.288;18.646;2023-03-13T10:09:56;99911.47;;;13.15;41.19
74218;BME280;62579;47.288;18.646;2023-03-13T10:12:23;99913.12;;;13.24;40.49
74218;BME280;62579;47.288;18.646;2023-03-13T10:17:34;99893.81;;;13.41;39.74
74218;BME280;62579;47.288;18.646;2023-03-13T10:22:34;99901.66;;;13.74;40.92
74218;BME280;62579;47.288;18.646;2023-03-13T10:27:26;99900.84;;;13.98;38.68
74218;BME280;62579;47.288;18.646;2023-03-13T10:29:51;99900.16;;;13.92;39.73
74218;BME280;62579;47.288;18.646;2023-03-13T10:32:17;99903.72;;;14.05;39.33
74218;BME280;62579;47.288;18.646;2023-03-13T10:34:56;99897.88;;;14.14;38.55
74218;BME280;62579;47.288;18.646;2023-03-13T10:37:28;99889.25;;;14.23;38.48
74218;BME280;62579;47.288;18.646;2023-03-13T10:40:00;99886.75;;;14.25;37.07
74218;BME280;62579;47.288;18.646;2023-03-13T10:42:35;99880.75;;;14.27;36.99
74218;BME280;62579;47.288;18.646;2023-03-13T10:45:06;99888.69;;;14.30;37.65
74218;BME280;62579;47.288;18.646;2023-03-13T10:47:32;99886.56;;;14.55;38.33
74218;BME280;62579;47.288;18.646;2023-03-13T10:49:57;99876.25;;;14.61;38.63
74218;BME280;62579;47.288;18.646;2023-03-13T10:52:30;99871.94;;;14.66;38.57
74218;BME280;62579;47.288;18.646;2023-03-13T10:55:00;99869.03;;;14.77;38.48
74218;BME280;62579;47.288;18.646;2023-03-13T10:57:29;99862.66;;;15.00;37.93
74218;BME280;62579;47.288;18.646;2023-03-13T10:59:55;99855.59;;;15.05;38.13
74218;BME280;62579;47.288;18.646;2023-03-13T11:04:46;99843.47;;;15.00;38.39
74218;BME280;62579;47.288;18.646;2023-03-13T11:07:16;99836.69;;;15.15;38.69
74218;BME280;62579;47.288;18.646;2023-03-13T11:09:54;99834.50;;;15.13;39.07
74218;BME280;62579;47.288;18.646;2023-03-13T11:12:21;99832.69;;;14.89;38.91
74218;BME280;62579;47.288;18.646;2023-03-13T11:14:46;99821.09;;;14.83;39.49
74218;BME280;62579;47.288;18.646;2023-03-13T11:17:28;99818.50;;;14.46;40.83
74218;BME280;62579;47.288;18.646;2023-03-13T11:20:02;99822.44;;;14.64;40.47
74218;BME280;62579;47.288;18.646;2023-03-13T11:27:30;99812.03;;;14.88;39.84
74218;BME280;62579;47.288;18.646;2023-03-13T11:32:41;99802.75;;;14.78;41.38
74218;BME280;62579;47.288;18.646;2023-03-13T11:35:30;99804.31;;;14.61;41.36
74218;BME280;62579;47.288;18.646;2023-03-13T11:37:55;99806.94;;;14.53;41.48
74218;BME280;62579;47.288;18.646;2023-03-13T11:50:17;99792.53;;;14.79;41.76
74218;BME280;62579;47.288;18.646;2023-03-13T11:56:36;99774.41;;;14.63;42.12
74218;BME280;62579;47.288;18.646;2023-03-13T12:01:07;99755.97;;;14.63;42.53
74218;BME280;62579;47.288;18.646;2023-03-13T12:08:51;99743.13;;;15.44;41.52
74218;BME280;62579;47.288;18.646;2023-03-13T12:11:20;99736.44;;;15.66;41.12
74218;BME280;62579;47.288;18.646;2023-03-13T12:14:09;99726.47;;;15.97;39.96
74218;BME280;62579;47.288;18.646;2023-03-13T12:16:47;99719.50;;;15.96;40.49
74218;BME280;62579;47.288;18.646;2023-03-13T12:19:17;99705.56;;;16.14;40.25
74218;BME280;62579;47.288;18.646;2023-03-13T12:21:47;99699.84;;;16.33;39.99
74218;BME280;62579;47.288;18.646;2023-03-13T12:26:57;99694.00;;;16.65;37.51
74218;BME280;62579;47.288;18.646;2023-03-13T12:37:20;99674.03;;;17.08;36.07
74218;BME280;62579;47.288;18.646;2023-03-13T12:40:00;99660.47;;;17.02;35.96
74218;BME280;62579;47.288;18.646;2023-03-13T12:44:53;99652.47;;;17.27;36.34
74218;BME280;62579;47.288;18.646;2023-03-13T12:52:17;99645.91;;;17.45;35.22
74218;BME280;62579;47.288;18.646;2023-03-13T12:54:59;99634.19;;;17.52;35.01
74218;BME280;62579;47.288;18.646;2023-03-13T13:00:10;99626.69;;;17.60;34.85
74218;BME280;62579;47.288;18.646;2023-03-13T13:02:38;99613.84;;;17.63;35.16
74218;BME280;62579;47.288;18.646;2023-03-13T13:05:03;99620.25;;;17.80;34.10
74218;BME280;62579;47.288;18.646;2023-03-13T13:07:29;99614.72;;;17.50;34.71
74218;BME280;62579;47.288;18.646;2023-03-13T13:12:27;99609.97;;;17.81;34.65
74218;BME280;62579;47.288;18.646;2023-03-13T13:14:54;99619.16;;;17.83;34.57
74218;BME280;62579;47.288;18.646;2023-03-13T13:17:23;99610.34;;;17.55;34.44
74218;BME280;62579;47.288;18.646;2023-03-13T13:19:50;99616.41;;;17.61;34.40
74218;BME280;62579;47.288;18.646;2023-03-13T13:30:00;99597.66;;;18.05;34.38
74218;BME280;62579;47.288;18.646;2023-03-13T13:32:29;99592.72;;;17.95;34.36
74218;BME280;62579;47.288;18.646;2023-03-13T13:35:17;99586.44;;;18.10;34.60
74218;BME280;62579;47.288;18.646;2023-03-13T13:37:43;99581.31;;;18.07;34.31
74218;BME280;62579;47.288;18.646;2023-03-13T13:40:29;99574.75;;;17.87;33.88
74218;BME280;62579;47.288;18.646;2023-03-13T13:42:54;99567.59;;;17.54;34.08
74218;BME280;62579;47.288;18.646;2023-03-13T13:48:12;99581.91;;;17.82;35.79
74218;BME280;62579;47.288;18.646;2023-03-13T13:50:36;99566.69;;;17.81;34.76
74218;BME280;62579;47.288;18.646;2023-03-13T13:55:46;99561.91;;;17.59;36.21
74218;BME280;62579;47.288;18.646;2023-03-13T13:58:13;99573.84;;;17.69;36.66
74218;BME280;62579;47.288;18.646;2023-03-13T14:00:43;99570.34;;;17.38;36.22
74218;BME280;62579;47.288;18.646;2023-03-13T14:03:28;99563.75;;;17.34;35.95
74218;BME280;62579;47.288;18.646;2023-03-13T14:05:55;99555.66;;;17.36;36.82
74218;BME280;62579;47.288;18.646;2023-03-13T14:08:25;99568.34;;;17.54;36.55
74218;BME280;62579;47.288;18.646;2023-03-13T14:11:03;99568.91;;;17.60;36.09
74218;BME280;62579;47.288;18.646;2023-03-13T14:13:29;99562.66;;;17.75;35.90
74218;BME280;62579;47.288;18.646;2023-03-13T14:15:54;99558.44;;;17.74;35.52
74218;BME280;62579;47.288;18.646;2023-03-13T14:23:38;99568.50;;;17.79;36.16
74218;BME280;62579;47.288;18.646;2023-03-13T14:26:10;99568.53;;;17.56;37.21
74218;BME280;62579;47.288;18.646;2023-03-13T14:28:37;99567.06;;;17.63;38.04
74218;BME280;62579;47.288;18.646;2023-03-13T14:31:04;99570.00;;;17.57;38.34